Time,TemperatureF,DewpointF,PressureIn,WindDirection,WindDirectionDegrees,WindSpeedMPH,WindSpeedGustMPH,Humidity,HourlyPrecipIn,Conditions,Clouds,dailyrainin,SoftwareType,DateUTC
2013-02-08 00:00:00,29.4,18.7,30.31,ENE,71,11.0,11.0,64,0.00,,,0.00,Wunderground v.1.15,2013-02-08 06:00:00,
2013-02-08 00:06:00,29.4,19.4,30.32,ENE,73,11.0,14.0,66,0.00,,,0.00,Wunderground v.1.15,2013-02-08 06:06:00,
2013-02-08 00:12:00,29.4,20.1,30.32,ENE,76,12.0,12.0,68,0.00,,,0.00,Wunderground v.1.15,2013-02-08 06:12:00,
2013-02-08 00:17:00,29.5,20.2,30.32,ENE,76,11.0,12.0,68,0.00,,,0.00,Wunderground v.1.15,2013-02-08 06:17:00,
2013-02-08 00:23:00,29.4,20.5,30.32,ENE,74,10.0,13.0,69,0.00,,,0.00,Wunderground v.1.15,2013-02-08 06:23:00,
2013-02-08 00:28:00,28.5,20.0,30.32,ENE,74,11.0,13.0,70,0.00,,,0.00,Wunderground v.1.15,2013-02-08 06:28:00,
2013-02-08 00:34:00,28.6,20.7,30.32,ENE,75,11.0,11.0,72,0.00,,,0.00,Wunderground v.1.15,2013-02-08 06:34:00,
2013-02-08 00:39:00,28.4,20.5,30.32,East,80,10.0,12.0,72,0.00,,,0.00,Wunderground v.1.15,2013-02-08 06:39:00,
2013-02-08 00:45:00,28.0,20.1,30.32,East,79,10.0,11.0,72,0.00,,,0.00,Wunderground v.1.15,2013-02-08 06:45:00,
2013-02-08 00:51:00,27.8,20.3,30.32,East,80,9.0,11.0,73,0.00,,,0.00,Wunderground v.1.15,2013-02-08 06:51:00,
2013-02-08 00:57:00,28.1,20.9,30.32,East,82,9.0,11.0,74,0.00,,,0.00,Wunderground v.1.15,2013-02-08 06:57:00,
2013-02-08 01:02:00,27.8,20.3,30.32,East,81,8.0,9.0,73,0.00,,,0.00,Wunderground v.1.15,2013-02-08 07:02:00,
2013-02-08 01:07:00,27.8,20.6,30.32,East,81,8.0,9.0,74,0.00,,,0.00,Wunderground v.1.15,2013-02-08 07:07:00,
2013-02-08 01:13:00,27.5,20.3,30.33,East,80,8.0,8.0,74,0.00,,,0.00,Wunderground v.1.15,2013-02-08 07:13:00,
2013-02-08 01:18:00,27.2,20.3,30.32,ENE,78,8.0,9.0,75,0.00,,,0.00,Wunderground v.1.15,2013-02-08 07:18:00,
2013-02-08 01:24:00,26.9,20.3,30.33,ENE,76,9.0,10.0,76,0.00,,,0.00,Wunderground v.1.15,2013-02-08 07:24:00,
2013-02-08 01:30:00,26.8,20.6,30.32,ENE,76,9.0,10.0,77,0.00,,,0.00,Wunderground v.1.15,2013-02-08 07:30:00,
2013-02-08 01:35:00,26.5,20.6,30.32,ENE,75,9.0,10.0,78,0.00,,,0.00,Wunderground v.1.15,2013-02-08 07:35:00,
2013-02-08 01:40:00,26.6,20.7,30.32,ENE,76,9.0,9.0,78,0.00,,,0.00,Wunderground v.1.15,2013-02-08 07:40:00,
2013-02-08 01:46:00,26.7,21.1,30.32,ENE,75,8.0,10.0,79,0.00,,,0.00,Wunderground v.1.15,2013-02-08 07:46:00,
2013-02-08 01:52:00,26.1,20.2,30.32,ENE,75,9.0,9.0,78,0.00,,,0.00,Wunderground v.1.15,2013-02-08 07:52:00,
2013-02-08 01:58:00,25.5,19.9,30.32,ENE,74,8.0,10.0,79,0.00,,,0.00,Wunderground v.1.15,2013-02-08 07:58:00,
2013-02-08 02:03:00,25.3,20.0,30.32,ENE,74,8.0,8.0,80,0.00,,,0.00,Wunderground v.1.15,2013-02-08 08:03:00,
2013-02-08 02:09:00,25.0,19.7,30.33,ENE,74,7.0,8.0,80,0.00,,,0.00,Wunderground v.1.15,2013-02-08 08:09:00,
2013-02-08 02:14:00,24.5,19.2,30.33,ENE,74,7.0,9.0,80,0.00,,,0.00,Wunderground v.1.15,2013-02-08 08:14:00,
2013-02-08 02:19:00,23.8,18.5,30.32,ENE,73,8.0,9.0,80,0.00,,,0.00,Wunderground v.1.15,2013-02-08 08:19:00,
2013-02-08 02:25:00,23.7,19.0,30.33,ENE,73,8.0,9.0,82,0.00,,,0.00,Wunderground v.1.15,2013-02-08 08:25:00,
2013-02-08 02:31:00,23.6,18.9,30.32,ENE,73,8.0,8.0,82,0.00,,,0.00,Wunderground v.1.15,2013-02-08 08:31:00,
2013-02-08 02:36:00,23.6,18.9,30.32,ENE,74,7.0,8.0,82,0.00,,,0.00,Wunderground v.1.15,2013-02-08 08:36:00,
2013-02-08 02:41:00,23.5,19.1,30.32,ENE,74,7.0,8.0,83,0.00,,,0.00,Wunderground v.1.15,2013-02-08 08:41:00,
2013-02-08 02:47:00,23.5,19.1,30.32,ENE,73,8.0,10.0,83,0.00,,,0.00,Wunderground v.1.15,2013-02-08 08:47:00,
2013-02-08 02:52:00,23.1,18.7,30.32,ENE,73,10.0,10.0,83,0.00,,,0.00,Wunderground v.1.15,2013-02-08 08:52:00,
2013-02-08 02:58:00,22.9,18.5,30.32,ENE,75,10.0,11.0,83,0.00,,,0.00,Wunderground v.1.15,2013-02-08 08:58:00,
2013-02-08 03:03:00,23.0,18.9,30.31,ENE,70,10.0,15.0,84,0.00,,,0.00,Wunderground v.1.15,2013-02-08 09:03:00,
2013-02-08 03:08:00,23.7,19.9,30.32,ENE,78,12.0,15.0,85,0.00,,,0.00,Wunderground v.1.15,2013-02-08 09:08:00,
2013-02-08 03:14:00,24.8,20.9,30.31,East,83,11.0,13.0,85,0.00,,,0.00,Wunderground v.1.15,2013-02-08 09:14:00,
2013-02-08 03:19:00,24.9,21.0,30.31,East,85,10.0,13.0,85,0.00,,,0.00,Wunderground v.1.15,2013-02-08 09:19:00,
2013-02-08 03:25:00,24.9,21.0,30.32,East,84,9.0,10.0,85,0.00,,,0.00,Wunderground v.1.15,2013-02-08 09:25:00,
2013-02-08 03:31:00,23.9,19.8,30.32,East,83,8.0,8.0,84,0.00,,,0.00,Wunderground v.1.15,2013-02-08 09:31:00,
2013-02-08 03:36:00,23.1,19.0,30.32,East,83,7.0,8.0,84,0.00,,,0.00,Wunderground v.1.15,2013-02-08 09:36:00,
2013-02-08 03:42:00,22.4,18.3,30.31,ENE,75,9.0,11.0,84,0.00,,,0.00,Wunderground v.1.15,2013-02-08 09:42:00,
2013-02-08 03:48:00,21.9,17.8,30.31,ENE,74,10.0,11.0,84,0.00,,,0.00,Wunderground v.1.15,2013-02-08 09:48:00,
2013-02-08 03:53:00,21.5,17.4,30.31,ENE,74,10.0,12.0,84,0.00,,,0.00,Wunderground v.1.15,2013-02-08 09:53:00,
2013-02-08 03:59:00,21.3,17.5,30.31,ENE,76,10.0,12.0,85,0.00,,,0.00,Wunderground v.1.15,2013-02-08 09:59:00,
2013-02-08 04:04:00,21.8,18.0,30.31,ENE,78,9.0,10.0,85,0.00,,,0.00,Wunderground v.1.15,2013-02-08 10:04:00,
2013-02-08 04:10:00,21.7,17.9,30.31,ENE,78,8.0,8.0,85,0.00,,,0.00,Wunderground v.1.15,2013-02-08 10:10:00,
2013-02-08 04:15:00,22.1,18.6,30.31,East,88,8.0,9.0,86,0.00,,,0.00,Wunderground v.1.15,2013-02-08 10:15:00,
2013-02-08 04:21:00,25.2,21.9,30.31,East,98,9.0,13.0,87,0.00,,,0.00,Wunderground v.1.15,2013-02-08 10:21:00,
2013-02-08 04:26:00,26.1,22.8,30.31,East,88,11.0,13.0,87,0.00,,,0.00,Wunderground v.1.15,2013-02-08 10:26:00,
2013-02-08 04:32:00,25.4,21.8,30.30,East,86,10.0,10.0,86,0.00,,,0.00,Wunderground v.1.15,2013-02-08 10:32:00,
2013-02-08 04:37:00,25.2,21.6,30.30,East,86,8.0,10.0,86,0.00,,,0.00,Wunderground v.1.15,2013-02-08 10:37:00,
2013-02-08 04:42:00,25.3,21.4,30.30,East,84,9.0,10.0,85,0.00,,,0.00,Wunderground v.1.15,2013-02-08 10:42:00,
2013-02-08 04:47:00,25.2,21.3,30.30,East,84,9.0,11.0,85,0.00,,,0.00,Wunderground v.1.15,2013-02-08 10:47:00,
2013-02-08 04:53:00,25.3,21.4,30.30,East,86,9.0,11.0,85,0.00,,,0.00,Wunderground v.1.15,2013-02-08 10:53:00,
2013-02-08 04:58:00,25.3,21.4,30.30,East,92,9.0,11.0,85,0.00,,,0.00,Wunderground v.1.15,2013-02-08 10:58:00,
2013-02-08 05:03:00,25.2,21.3,30.30,East,87,9.0,10.0,85,0.00,,,0.00,Wunderground v.1.15,2013-02-08 11:03:00,
2013-02-08 05:09:00,24.4,20.3,30.30,ENE,78,9.0,11.0,84,0.00,,,0.00,Wunderground v.1.15,2013-02-08 11:09:00,
2013-02-08 05:15:00,24.2,20.3,30.30,East,87,10.0,13.0,85,0.00,,,0.00,Wunderground v.1.15,2013-02-08 11:15:00,
2013-02-08 05:20:00,24.5,20.6,30.30,East,86,9.0,9.0,85,0.00,,,0.00,Wunderground v.1.15,2013-02-08 11:20:00,
2013-02-08 05:25:00,24.1,20.2,30.30,East,84,9.0,9.0,85,0.00,,,0.00,Wunderground v.1.15,2013-02-08 11:25:00,
2013-02-08 05:31:00,23.1,19.0,30.31,East,80,8.0,9.0,84,0.00,,,0.00,Wunderground v.1.15,2013-02-08 11:31:00,
2013-02-08 05:36:00,23.0,19.2,30.31,East,80,9.0,9.0,85,0.00,,,0.00,Wunderground v.1.15,2013-02-08 11:36:00,
2013-02-08 05:41:00,22.8,19.0,30.31,East,80,9.0,9.0,85,0.00,,,0.00,Wunderground v.1.15,2013-02-08 11:41:00,
2013-02-08 05:47:00,22.2,18.4,30.31,ENE,74,9.0,10.0,85,0.00,,,0.00,Wunderground v.1.15,2013-02-08 11:47:00,
2013-02-08 05:52:00,22.0,18.2,30.31,ENE,74,10.0,10.0,85,0.00,,,0.00,Wunderground v.1.15,2013-02-08 11:52:00,
2013-02-08 05:58:00,22.2,18.4,30.31,ENE,75,11.0,11.0,85,0.00,,,0.00,Wunderground v.1.15,2013-02-08 11:58:00,
2013-02-08 06:03:00,21.8,18.0,30.30,ENE,74,11.0,12.0,85,0.00,,,0.00,Wunderground v.1.15,2013-02-08 12:03:00,
2013-02-08 06:09:00,21.3,17.5,30.30,ENE,72,11.0,12.0,85,0.00,,,0.00,Wunderground v.1.15,2013-02-08 12:09:00,
2013-02-08 06:14:00,21.2,17.4,30.30,ENE,74,11.0,12.0,85,0.00,,,0.00,Wunderground v.1.15,2013-02-08 12:14:00,
2013-02-08 06:20:00,21.0,17.2,30.30,ENE,71,12.0,12.0,85,0.00,,,0.00,Wunderground v.1.15,2013-02-08 12:20:00,
2013-02-08 06:25:00,20.4,16.6,30.30,ENE,67,13.0,14.0,85,0.00,,,0.00,Wunderground v.1.15,2013-02-08 12:25:00,
2013-02-08 06:31:00,19.7,15.9,30.30,ENE,66,13.0,13.0,85,0.00,,,0.00,Wunderground v.1.15,2013-02-08 12:31:00,
2013-02-08 06:37:00,19.7,16.2,30.30,ENE,67,12.0,13.0,86,0.00,,,0.00,Wunderground v.1.15,2013-02-08 12:37:00,
2013-02-08 06:42:00,19.6,16.1,30.30,ENE,69,12.0,13.0,86,0.00,,,0.00,Wunderground v.1.15,2013-02-08 12:42:00,
2013-02-08 06:48:00,19.5,16.0,30.30,ENE,70,12.0,13.0,86,0.00,,,0.00,Wunderground v.1.15,2013-02-08 12:48:00,
2013-02-08 06:53:00,19.5,16.0,30.30,ENE,69,12.0,13.0,86,0.00,,,0.00,Wunderground v.1.15,2013-02-08 12:53:00,
2013-02-08 06:59:00,19.3,15.8,30.30,ENE,71,12.0,13.0,86,0.00,,,0.00,Wunderground v.1.15,2013-02-08 12:59:00,
2013-02-08 07:04:00,19.0,15.5,30.30,ENE,67,12.0,13.0,86,0.00,,,0.00,Wunderground v.1.15,2013-02-08 13:04:00,
2013-02-08 07:10:00,18.8,15.3,30.30,ENE,67,12.0,12.0,86,0.00,,,0.00,Wunderground v.1.15,2013-02-08 13:10:00,
2013-02-08 07:15:00,18.8,15.3,30.30,ENE,70,12.0,13.0,86,0.00,,,0.00,Wunderground v.1.15,2013-02-08 13:15:00,
2013-02-08 07:20:00,19.1,15.6,30.30,ENE,76,12.0,12.0,86,0.00,,,0.00,Wunderground v.1.15,2013-02-08 13:20:00,
2013-02-08 07:26:00,19.7,16.2,30.30,East,79,12.0,13.0,86,0.00,,,0.00,Wunderground v.1.15,2013-02-08 13:26:00,
2013-02-08 07:31:00,20.2,17.0,30.30,ENE,78,11.0,12.0,87,0.00,,,0.00,Wunderground v.1.15,2013-02-08 13:31:00,
2013-02-08 07:36:00,19.8,16.3,30.30,ENE,78,11.0,12.0,86,0.00,,,0.00,Wunderground v.1.15,2013-02-08 13:36:00,
2013-02-08 07:42:00,19.8,16.3,30.30,East,80,11.0,11.0,86,0.00,,,0.00,Wunderground v.1.15,2013-02-08 13:42:00,
2013-02-08 07:47:00,20.3,17.0,30.30,East,81,11.0,11.0,87,0.00,,,0.00,Wunderground v.1.15,2013-02-08 13:47:00,
2013-02-08 07:53:00,20.2,16.7,30.30,East,80,10.0,11.0,86,0.00,,,0.00,Wunderground v.1.15,2013-02-08 13:53:00,
2013-02-08 07:58:00,20.3,16.8,30.30,East,79,9.0,11.0,86,0.00,,,0.00,Wunderground v.1.15,2013-02-08 13:58:00,
2013-02-08 08:03:00,20.5,17.2,30.30,East,80,10.0,10.0,87,0.00,,,0.00,Wunderground v.1.15,2013-02-08 14:03:00,
2013-02-08 08:09:00,20.6,17.3,30.30,East,81,10.0,10.0,87,0.00,,,0.00,Wunderground v.1.15,2013-02-08 14:09:00,
2013-02-08 08:14:00,21.2,17.9,30.30,East,86,9.0,11.0,87,0.00,,,0.00,Wunderground v.1.15,2013-02-08 14:14:00,
2013-02-08 08:20:00,21.5,18.2,30.31,East,88,7.0,7.0,87,0.00,,,0.00,Wunderground v.1.15,2013-02-08 14:20:00,
2013-02-08 08:26:00,22.0,18.7,30.31,East,90,6.0,8.0,87,0.00,,,0.00,Wunderground v.1.15,2013-02-08 14:26:00,
2013-02-08 08:31:00,22.2,18.9,30.31,East,91,6.0,6.0,87,0.00,,,0.00,Wunderground v.1.15,2013-02-08 14:31:00,
2013-02-08 08:37:00,23.0,19.7,30.31,East,92,5.0,7.0,87,0.00,,,0.00,Wunderground v.1.15,2013-02-08 14:37:00,
2013-02-08 08:42:00,23.4,20.1,30.31,East,92,5.0,6.0,87,0.00,,,0.00,Wunderground v.1.15,2013-02-08 14:42:00,
2013-02-08 08:48:00,23.8,20.5,30.31,ENE,71,5.0,6.0,87,0.00,,,0.00,Wunderground v.1.15,2013-02-08 14:48:00,
2013-02-08 08:53:00,24.3,21.0,30.31,East,86,6.0,7.0,87,0.00,,,0.00,Wunderground v.1.15,2013-02-08 14:53:00,
2013-02-08 08:58:00,25.3,22.0,30.31,ESE,115,7.0,9.0,87,0.00,,,0.00,Wunderground v.1.15,2013-02-08 14:58:00,
2013-02-08 09:04:00,26.2,23.1,30.31,ESE,115,7.0,8.0,88,0.00,,,0.00,Wunderground v.1.15,2013-02-08 15:04:00,
2013-02-08 09:09:00,27.3,23.9,30.31,ESE,123,8.0,14.0,87,0.00,,,0.00,Wunderground v.1.15,2013-02-08 15:09:00,
2013-02-08 09:15:00,29.3,25.9,30.30,ESE,117,9.0,13.0,87,0.00,,,0.00,Wunderground v.1.15,2013-02-08 15:15:00,
2013-02-08 09:20:00,30.7,26.7,30.30,ESE,115,11.0,16.0,85,0.00,,,0.00,Wunderground v.1.15,2013-02-08 15:20:00,
2013-02-08 09:26:00,31.7,26.5,30.30,ESE,115,13.0,17.0,81,0.00,,,0.00,Wunderground v.1.15,2013-02-08 15:26:00,
2013-02-08 09:31:00,32.2,26.7,30.30,ESE,104,11.0,12.0,80,0.00,,,0.00,Wunderground v.1.15,2013-02-08 15:31:00,
2013-02-08 09:37:00,32.8,26.7,30.30,SE,124,11.0,16.0,78,0.00,,,0.00,Wunderground v.1.15,2013-02-08 15:37:00,
2013-02-08 09:42:00,33.5,27.1,30.30,SE,138,11.0,11.0,77,0.00,,,0.00,Wunderground v.1.15,2013-02-08 15:42:00,
2013-02-08 09:48:00,34.4,27.0,30.30,SE,125,10.0,17.0,74,0.00,,,0.00,Wunderground v.1.15,2013-02-08 15:48:00,
2013-02-08 09:53:00,34.7,26.6,30.31,SE,138,11.0,18.0,72,0.00,,,0.00,Wunderground v.1.15,2013-02-08 15:53:00,
2013-02-08 09:58:00,34.9,26.4,30.30,SE,138,13.0,19.0,71,0.00,,,0.00,Wunderground v.1.15,2013-02-08 15:58:00,
2013-02-08 10:04:00,35.2,26.4,30.30,SE,136,13.0,22.0,70,0.00,,,0.00,Wunderground v.1.15,2013-02-08 16:04:00,
2013-02-08 10:09:00,35.2,26.0,30.30,SE,143,14.0,22.0,69,0.00,,,0.00,Wunderground v.1.15,2013-02-08 16:09:00,
2013-02-08 10:14:00,35.4,25.9,30.30,SE,127,17.0,20.0,68,0.00,,,0.00,Wunderground v.1.15,2013-02-08 16:14:00,
2013-02-08 10:20:00,35.7,25.8,30.30,SE,130,16.0,16.0,67,0.00,,,0.00,Wunderground v.1.15,2013-02-08 16:20:00,
2013-02-08 10:25:00,36.0,26.1,30.29,SE,132,16.0,17.0,67,0.00,,,0.00,Wunderground v.1.15,2013-02-08 16:25:00,
2013-02-08 10:30:00,36.4,26.5,30.29,SE,139,16.0,19.0,67,0.00,,,0.00,Wunderground v.1.15,2013-02-08 16:30:00,
2013-02-08 10:36:00,36.9,26.6,30.29,SE,128,16.0,21.0,66,0.00,,,0.00,Wunderground v.1.15,2013-02-08 16:36:00,
2013-02-08 10:41:00,37.3,26.6,30.28,SE,127,17.0,20.0,65,0.00,,,0.00,Wunderground v.1.15,2013-02-08 16:41:00,
2013-02-08 10:47:00,37.6,26.9,30.28,SE,125,18.0,22.0,65,0.00,,,0.00,Wunderground v.1.15,2013-02-08 16:47:00,
2013-02-08 10:52:00,38.1,26.6,30.28,ESE,119,16.0,20.0,63,0.00,,,0.00,Wunderground v.1.15,2013-02-08 16:52:00,
2013-02-08 10:58:00,38.5,26.6,30.27,SE,133,15.0,20.0,62,0.00,,,0.00,Wunderground v.1.15,2013-02-08 16:58:00,
2013-02-08 11:03:00,38.7,26.8,30.27,ESE,123,16.0,20.0,62,0.00,,,0.00,Wunderground v.1.15,2013-02-08 17:03:00,
2013-02-08 11:09:00,39.4,27.1,30.27,SE,140,16.0,20.0,61,0.00,,,0.00,Wunderground v.1.15,2013-02-08 17:09:00,
2013-02-08 11:15:00,39.5,27.2,30.27,SSE,149,17.0,24.0,61,0.00,,,0.00,Wunderground v.1.15,2013-02-08 17:15:00,
2013-02-08 11:20:00,39.7,27.3,30.26,SE,134,17.0,20.0,61,0.00,,,0.00,Wunderground v.1.15,2013-02-08 17:20:00,
2013-02-08 11:26:00,39.9,27.1,30.26,SE,130,18.0,22.0,60,0.00,,,0.00,Wunderground v.1.15,2013-02-08 17:26:00,
2013-02-08 11:32:00,40.2,27.4,30.27,SE,132,20.0,20.0,60,0.00,,,0.00,Wunderground v.1.15,2013-02-08 17:32:00,
2013-02-08 11:37:00,40.4,27.6,30.26,SE,134,18.0,20.0,60,0.00,,,0.00,Wunderground v.1.15,2013-02-08 17:37:00,
2013-02-08 11:43:00,41.1,27.9,30.26,SE,146,16.0,25.0,59,0.00,,,0.00,Wunderground v.1.15,2013-02-08 17:43:00,
2013-02-08 11:49:00,41.3,27.6,30.26,SE,133,19.0,27.0,58,0.00,,,0.00,Wunderground v.1.15,2013-02-08 17:49:00,
2013-02-08 11:54:00,41.3,27.6,30.25,SE,133,22.0,27.0,58,0.00,,,0.00,Wunderground v.1.15,2013-02-08 17:54:00,
2013-02-08 12:00:00,41.2,27.9,30.25,SE,133,22.0,24.0,59,0.00,,,0.00,Wunderground v.1.15,2013-02-08 18:00:00,
2013-02-08 12:05:00,41.1,28.3,30.25,SE,136,22.0,25.0,60,0.00,,,0.00,Wunderground v.1.15,2013-02-08 18:05:00,
2013-02-08 12:10:00,41.3,28.4,30.24,SE,125,19.0,22.0,60,0.00,,,0.00,Wunderground v.1.15,2013-02-08 18:10:00,
2013-02-08 12:16:00,41.8,28.9,30.23,SE,129,18.0,25.0,60,0.00,,,0.00,Wunderground v.1.15,2013-02-08 18:16:00,
2013-02-08 12:22:00,42.5,28.8,30.23,ESE,103,17.0,21.0,58,0.00,,,0.00,Wunderground v.1.15,2013-02-08 18:22:00,
2013-02-08 12:27:00,43.0,28.8,30.23,SE,131,16.0,22.0,57,0.00,,,0.00,Wunderground v.1.15,2013-02-08 18:27:00,
2013-02-08 12:33:00,43.8,29.1,30.22,SE,128,17.0,22.0,56,0.00,,,0.00,Wunderground v.1.15,2013-02-08 18:33:00,
2013-02-08 12:38:00,44.5,28.9,30.22,ESE,117,16.0,26.0,54,0.00,,,0.00,Wunderground v.1.15,2013-02-08 18:38:00,
2013-02-08 12:44:00,45.0,28.9,30.22,SE,127,18.0,27.0,53,0.00,,,0.00,Wunderground v.1.15,2013-02-08 18:44:00,
2013-02-08 12:50:00,45.3,29.2,30.21,ESE,123,20.0,23.0,53,0.00,,,0.00,Wunderground v.1.15,2013-02-08 18:50:00,
2013-02-08 12:55:00,45.5,28.9,30.21,ESE,123,19.0,23.0,52,0.00,,,0.00,Wunderground v.1.15,2013-02-08 18:55:00,
2013-02-08 13:01:00,45.3,28.7,30.20,SE,124,19.0,19.0,52,0.00,,,0.00,Wunderground v.1.15,2013-02-08 19:01:00,
2013-02-08 13:06:00,45.4,28.8,30.20,ESE,118,18.0,23.0,52,0.00,,,0.00,Wunderground v.1.15,2013-02-08 19:06:00,
2013-02-08 13:12:00,45.4,28.8,30.19,ESE,117,17.0,21.0,52,0.00,,,0.00,Wunderground v.1.15,2013-02-08 19:12:00,
2013-02-08 13:18:00,45.6,28.5,30.19,ESE,117,18.0,27.0,51,0.00,,,0.00,Wunderground v.1.15,2013-02-08 19:18:00,
2013-02-08 13:23:00,45.5,28.4,30.19,ESE,117,21.0,26.0,51,0.00,,,0.00,Wunderground v.1.15,2013-02-08 19:23:00,
2013-02-08 13:29:00,45.9,28.8,30.18,ESE,109,19.0,26.0,51,0.00,,,0.00,Wunderground v.1.15,2013-02-08 19:29:00,
2013-02-08 13:34:00,46.3,29.1,30.18,ESE,120,18.0,28.0,51,0.00,,,0.00,Wunderground v.1.15,2013-02-08 19:34:00,
2013-02-08 13:40:00,46.5,28.8,30.17,SE,125,20.0,26.0,50,0.00,,,0.00,Wunderground v.1.15,2013-02-08 19:40:00,
2013-02-08 13:45:00,46.5,28.8,30.17,SE,138,22.0,26.0,50,0.00,,,0.00,Wunderground v.1.15,2013-02-08 19:45:00,
2013-02-08 13:50:00,47.3,29.6,30.17,SE,126,21.0,22.0,50,0.00,,,0.00,Wunderground v.1.15,2013-02-08 19:50:00,
2013-02-08 13:56:00,47.2,29.0,30.16,ESE,117,21.0,29.0,49,0.00,,,0.00,Wunderground v.1.15,2013-02-08 19:56:00,
2013-02-08 14:01:00,47.1,28.9,30.17,ESE,103,22.0,25.0,49,0.00,,,0.00,Wunderground v.1.15,2013-02-08 20:01:00,
2013-02-08 14:07:00,47.4,29.2,30.17,SE,140,20.0,25.0,49,0.00,,,0.00,Wunderground v.1.15,2013-02-08 20:07:00,
2013-02-08 14:12:00,47.8,29.0,30.16,SE,131,19.0,19.0,48,0.00,,,0.00,Wunderground v.1.15,2013-02-08 20:12:00,
2013-02-08 14:18:00,47.7,28.9,30.16,SE,126,19.0,26.0,48,0.00,,,0.00,Wunderground v.1.15,2013-02-08 20:18:00,
2013-02-08 14:23:00,47.4,29.2,30.15,ESE,117,22.0,29.0,49,0.00,,,0.00,Wunderground v.1.15,2013-02-08 20:23:00,
2013-02-08 14:29:00,47.1,29.4,30.15,ESE,112,23.0,29.0,50,0.00,,,0.00,Wunderground v.1.15,2013-02-08 20:29:00,
2013-02-08 14:34:00,46.9,29.2,30.15,SE,126,22.0,30.0,50,0.00,,,0.00,Wunderground v.1.15,2013-02-08 20:34:00,
2013-02-08 14:40:00,46.4,29.2,30.14,ESE,103,24.0,24.0,51,0.00,,,0.00,Wunderground v.1.15,2013-02-08 20:40:00,
2013-02-08 14:45:00,46.7,29.5,30.14,ESE,114,21.0,27.0,51,0.00,,,0.00,Wunderground v.1.15,2013-02-08 20:45:00,
2013-02-08 14:51:00,46.6,29.4,30.13,ESE,116,22.0,31.0,51,0.00,,,0.00,Wunderground v.1.15,2013-02-08 20:51:00,
2013-02-08 14:56:00,46.5,29.3,30.13,ESE,109,25.0,31.0,51,0.00,,,0.00,Wunderground v.1.15,2013-02-08 20:56:00,
2013-02-08 15:02:00,46.7,29.5,30.13,ESE,105,22.0,24.0,51,0.00,,,0.00,Wunderground v.1.15,2013-02-08 21:02:00,
2013-02-08 15:07:00,46.3,29.6,30.13,SE,138,21.0,24.0,52,0.00,,,0.00,Wunderground v.1.15,2013-02-08 21:07:00,
2013-02-08 15:12:00,46.0,29.3,30.13,ESE,113,23.0,26.0,52,0.00,,,0.00,Wunderground v.1.15,2013-02-08 21:12:00,
2013-02-08 15:18:00,46.0,29.3,30.12,ESE,121,21.0,26.0,52,0.00,,,0.00,Wunderground v.1.15,2013-02-08 21:18:00,
2013-02-08 15:23:00,46.1,29.4,30.12,ESE,115,21.0,28.0,52,0.00,,,0.00,Wunderground v.1.15,2013-02-08 21:23:00,
2013-02-08 15:29:00,46.2,29.5,30.12,ESE,109,22.0,28.0,52,0.00,,,0.00,Wunderground v.1.15,2013-02-08 21:29:00,
2013-02-08 15:34:00,46.3,29.6,30.12,SE,128,20.0,28.0,52,0.00,,,0.00,Wunderground v.1.15,2013-02-08 21:34:00,
2013-02-08 15:40:00,45.9,29.2,30.12,ESE,114,21.0,23.0,52,0.00,,,0.00,Wunderground v.1.15,2013-02-08 21:40:00,
2013-02-08 15:45:00,45.4,29.3,30.11,SE,130,22.0,26.0,53,0.00,,,0.00,Wunderground v.1.15,2013-02-08 21:45:00,
2013-02-08 15:50:00,45.2,29.1,30.12,SE,126,21.0,21.0,53,0.00,,,0.00,Wunderground v.1.15,2013-02-08 21:50:00,
2013-02-08 15:56:00,45.0,28.9,30.11,ESE,107,22.0,29.0,53,0.00,,,0.00,Wunderground v.1.15,2013-02-08 21:56:00,
2013-02-08 16:01:00,44.7,29.1,30.11,ESE,109,23.0,31.0,54,0.00,,,0.00,Wunderground v.1.15,2013-02-08 22:01:00,
2013-02-08 16:07:00,44.4,29.2,30.11,ESE,112,22.0,31.0,55,0.00,,,0.00,Wunderground v.1.15,2013-02-08 22:07:00,
2013-02-08 16:12:00,44.3,29.1,30.11,ESE,113,21.0,33.0,55,0.00,,,0.00,Wunderground v.1.15,2013-02-08 22:12:00,
2013-02-08 16:17:00,44.0,29.3,30.11,SE,130,22.0,33.0,56,0.00,,,0.00,Wunderground v.1.15,2013-02-08 22:17:00,
2013-02-08 16:23:00,43.8,29.5,30.12,ESE,121,23.0,27.0,57,0.00,,,0.00,Wunderground v.1.15,2013-02-08 22:23:00,
2013-02-08 16:28:00,43.9,29.6,30.11,ESE,106,23.0,27.0,57,0.00,,,0.00,Wunderground v.1.15,2013-02-08 22:28:00,
2013-02-08 16:34:00,43.7,29.9,30.12,ESE,119,24.0,30.0,58,0.00,,,0.00,Wunderground v.1.15,2013-02-08 22:34:00,
2013-02-08 16:39:00,43.6,29.8,30.12,SE,125,21.0,30.0,58,0.00,,,0.00,Wunderground v.1.15,2013-02-08 22:39:00,
2013-02-08 16:45:00,43.6,29.8,30.12,ESE,111,19.0,26.0,58,0.00,,,0.00,Wunderground v.1.15,2013-02-08 22:45:00,
2013-02-08 16:50:00,43.5,29.7,30.11,ESE,105,19.0,19.0,58,0.00,,,0.00,Wunderground v.1.15,2013-02-08 22:50:00,
2013-02-08 16:55:00,43.5,29.7,30.11,ESE,113,18.0,26.0,58,0.00,,,0.00,Wunderground v.1.15,2013-02-08 22:55:00,
2013-02-08 17:01:00,43.4,29.6,30.10,ESE,105,19.0,24.0,58,0.00,,,0.00,Wunderground v.1.15,2013-02-08 23:01:00,
2013-02-08 17:07:00,43.6,29.8,30.10,ESE,105,21.0,24.0,58,0.00,,,0.00,Wunderground v.1.15,2013-02-08 23:07:00,
2013-02-08 17:12:00,43.7,29.9,30.10,ESE,111,19.0,20.0,58,0.00,,,0.00,Wunderground v.1.15,2013-02-08 23:12:00,
2013-02-08 17:17:00,43.7,29.9,30.10,ESE,105,17.0,20.0,58,0.00,,,0.00,Wunderground v.1.15,2013-02-08 23:17:00,
2013-02-08 17:23:00,43.6,29.8,30.10,ESE,110,17.0,24.0,58,0.00,,,0.00,Wunderground v.1.15,2013-02-08 23:23:00,
2013-02-08 17:28:00,43.3,29.5,30.10,ESE,111,19.0,26.0,58,0.00,,,0.00,Wunderground v.1.15,2013-02-08 23:28:00,
2013-02-08 17:33:00,43.1,29.7,30.09,East,98,18.0,19.0,59,0.00,,,0.00,Wunderground v.1.15,2013-02-08 23:33:00,
2013-02-08 17:39:00,42.7,29.4,30.09,ESE,111,15.0,22.0,59,0.00,,,0.00,Wunderground v.1.15,2013-02-08 23:39:00,
2013-02-08 17:45:00,42.2,29.3,30.09,ESE,106,18.0,26.0,60,0.00,,,0.00,Wunderground v.1.15,2013-02-08 23:45:00,
2013-02-08 17:51:00,41.8,28.9,30.09,ESE,102,21.0,21.0,60,0.00,,,0.00,Wunderground v.1.15,2013-02-08 23:51:00,
2013-02-08 17:57:00,41.3,28.9,30.08,ESE,107,20.0,22.0,61,0.00,,,0.00,Wunderground v.1.15,2013-02-08 23:57:00,
2013-02-08 18:02:00,40.8,28.8,30.09,East,95,19.0,19.0,62,0.00,,,0.00,Wunderground v.1.15,2013-02-09 00:02:00,
2013-02-08 18:07:00,40.5,28.9,30.09,ESE,121,19.0,24.0,63,0.00,,,0.00,Wunderground v.1.15,2013-02-09 00:07:00,
2013-02-08 18:13:00,40.2,29.0,30.09,ESE,109,18.0,22.0,64,0.00,,,0.00,Wunderground v.1.15,2013-02-09 00:13:00,
2013-02-08 18:18:00,40.0,28.8,30.10,ESE,109,17.0,22.0,64,0.00,,,0.00,Wunderground v.1.15,2013-02-09 00:18:00,
2013-02-08 18:23:00,39.7,28.9,30.09,ESE,107,18.0,22.0,65,0.00,,,0.00,Wunderground v.1.15,2013-02-09 00:23:00,
2013-02-08 18:29:00,39.4,29.0,30.09,ESE,116,18.0,22.0,66,0.00,,,0.00,Wunderground v.1.15,2013-02-09 00:29:00,
2013-02-08 18:34:00,39.2,28.8,30.09,ESE,111,18.0,24.0,66,0.00,,,0.00,Wunderground v.1.15,2013-02-09 00:34:00,
2013-02-08 18:39:00,39.0,29.0,30.09,ESE,104,19.0,25.0,67,0.00,,,0.00,Wunderground v.1.15,2013-02-09 00:39:00,
2013-02-08 18:45:00,39.0,29.0,30.09,ESE,111,20.0,24.0,67,0.00,,,0.00,Wunderground v.1.15,2013-02-09 00:45:00,
2013-02-08 18:51:00,38.9,28.9,30.09,ESE,113,19.0,22.0,67,0.00,,,0.00,Wunderground v.1.15,2013-02-09 00:51:00,
2013-02-08 18:56:00,38.8,28.8,30.09,ESE,109,18.0,22.0,67,0.00,,,0.00,Wunderground v.1.15,2013-02-09 00:56:00,
2013-02-08 19:01:00,38.7,29.0,30.09,ESE,109,19.0,23.0,68,0.00,,,0.00,Wunderground v.1.15,2013-02-09 01:01:00,
2013-02-08 19:07:00,38.6,28.9,30.09,ESE,117,20.0,25.0,68,0.00,,,0.00,Wunderground v.1.15,2013-02-09 01:07:00,
2013-02-08 19:13:00,38.4,28.8,30.09,ESE,111,20.0,24.0,68,0.00,,,0.00,Wunderground v.1.15,2013-02-09 01:13:00,
2013-02-08 19:18:00,38.2,28.9,30.09,ESE,122,20.0,29.0,69,0.00,,,0.00,Wunderground v.1.15,2013-02-09 01:18:00,
2013-02-08 19:23:00,38.0,28.7,30.09,ESE,109,22.0,26.0,69,0.00,,,0.00,Wunderground v.1.15,2013-02-09 01:23:00,
2013-02-08 19:29:00,37.8,28.9,30.09,SE,127,22.0,30.0,70,0.00,,,0.00,Wunderground v.1.15,2013-02-09 01:29:00,
2013-02-08 19:34:00,37.6,28.7,30.09,ESE,117,21.0,23.0,70,0.00,,,0.00,Wunderground v.1.15,2013-02-09 01:34:00,
2013-02-08 19:39:00,37.4,28.9,30.09,ESE,123,20.0,23.0,71,0.00,,,0.00,Wunderground v.1.15,2013-02-09 01:39:00,
2013-02-08 19:45:00,37.2,28.7,30.09,ESE,117,19.0,24.0,71,0.00,,,0.00,Wunderground v.1.15,2013-02-09 01:45:00,
2013-02-08 19:50:00,37.0,28.5,30.09,ESE,113,19.0,19.0,71,0.00,,,0.00,Wunderground v.1.15,2013-02-09 01:50:00,
2013-02-08 19:55:00,36.9,28.4,30.09,SE,127,20.0,22.0,71,0.00,,,0.00,Wunderground v.1.15,2013-02-09 01:55:00,
2013-02-08 20:01:00,36.8,28.6,30.09,ESE,121,20.0,25.0,72,0.00,,,0.00,Wunderground v.1.15,2013-02-09 02:01:00,
2013-02-08 20:06:00,36.7,28.5,30.09,ESE,119,20.0,27.0,72,0.00,,,0.00,Wunderground v.1.15,2013-02-09 02:06:00,
2013-02-08 20:12:00,36.5,28.7,30.09,ESE,119,21.0,22.0,73,0.00,,,0.00,Wunderground v.1.15,2013-02-09 02:12:00,
2013-02-08 20:17:00,36.3,28.5,30.09,ESE,110,21.0,23.0,73,0.00,,,0.00,Wunderground v.1.15,2013-02-09 02:17:00,
2013-02-08 20:23:00,36.1,28.3,30.10,SE,125,20.0,24.0,73,0.00,,,0.00,Wunderground v.1.15,2013-02-09 02:23:00,
2013-02-08 20:29:00,35.9,28.4,30.10,ESE,103,19.0,25.0,74,0.00,,,0.00,Wunderground v.1.15,2013-02-09 02:29:00,
2013-02-08 20:34:00,35.6,28.1,30.09,ESE,111,19.0,20.0,74,0.00,,,0.00,Wunderground v.1.15,2013-02-09 02:34:00,
2013-02-08 20:40:00,35.4,27.9,30.09,ESE,115,18.0,18.0,74,0.00,,,0.00,Wunderground v.1.15,2013-02-09 02:40:00,
2013-02-08 20:45:00,35.2,28.1,30.09,ESE,103,18.0,23.0,75,0.00,,,0.00,Wunderground v.1.15,2013-02-09 02:45:00,
2013-02-08 20:50:00,35.0,27.9,30.10,ESE,115,17.0,17.0,75,0.00,,,0.00,Wunderground v.1.15,2013-02-09 02:50:00,
2013-02-08 20:56:00,34.8,28.0,30.10,ESE,120,16.0,18.0,76,0.00,,,0.00,Wunderground v.1.15,2013-02-09 02:56:00,
2013-02-08 21:01:00,34.7,27.9,30.10,ESE,115,15.0,18.0,76,0.00,,,0.00,Wunderground v.1.15,2013-02-09 03:01:00,
2013-02-08 21:07:00,34.5,27.7,30.09,ESE,102,17.0,22.0,76,0.00,,,0.00,Wunderground v.1.15,2013-02-09 03:07:00,
2013-02-08 21:12:00,34.4,27.6,30.09,ESE,114,18.0,23.0,76,0.00,,,0.00,Wunderground v.1.15,2013-02-09 03:12:00,
2013-02-08 21:17:00,34.4,27.6,30.10,ESE,113,16.0,23.0,76,0.00,,,0.00,Wunderground v.1.15,2013-02-09 03:17:00,
2013-02-08 21:23:00,34.2,27.7,30.09,ESE,119,16.0,19.0,77,0.00,,,0.00,Wunderground v.1.15,2013-02-09 03:23:00,
2013-02-08 21:28:00,34.0,27.5,30.09,SE,130,17.0,21.0,77,0.00,,,0.00,Wunderground v.1.15,2013-02-09 03:28:00,
2013-02-08 21:34:00,33.8,27.7,30.09,East,94,17.0,20.0,78,0.00,,,0.00,Wunderground v.1.15,2013-02-09 03:34:00,
2013-02-08 21:39:00,33.7,27.6,30.09,ESE,123,16.0,21.0,78,0.00,,,0.00,Wunderground v.1.15,2013-02-09 03:39:00,
2013-02-08 21:44:00,33.7,27.6,30.08,SE,132,17.0,23.0,78,0.00,,,0.00,Wunderground v.1.15,2013-02-09 03:44:00,
2013-02-08 21:50:00,33.7,27.6,30.08,SE,128,16.0,16.0,78,0.00,,,0.00,Wunderground v.1.15,2013-02-09 03:50:00,
2013-02-08 21:56:00,33.7,27.3,30.08,ESE,109,16.0,19.0,77,0.00,,,0.00,Wunderground v.1.15,2013-02-09 03:56:00,
2013-02-08 22:01:00,34.1,27.6,30.08,ESE,112,19.0,24.0,77,0.00,,,0.00,Wunderground v.1.15,2013-02-09 04:01:00,
2013-02-08 22:07:00,34.4,27.3,30.08,ESE,113,21.0,27.0,75,0.00,,,0.00,Wunderground v.1.15,2013-02-09 04:07:00,
2013-02-08 22:12:00,34.4,27.3,30.07,ESE,117,21.0,31.0,75,0.00,,,0.00,Wunderground v.1.15,2013-02-09 04:12:00,
2013-02-08 22:17:00,34.8,27.4,30.07,ESE,116,20.0,31.0,74,0.00,,,0.00,Wunderground v.1.15,2013-02-09 04:17:00,
2013-02-08 22:23:00,35.0,27.2,30.07,SE,124,20.0,25.0,73,0.00,,,0.00,Wunderground v.1.15,2013-02-09 04:23:00,
2013-02-08 22:29:00,35.0,26.9,30.07,ESE,121,22.0,25.0,72,0.00,,,0.00,Wunderground v.1.15,2013-02-09 04:29:00,
2013-02-08 22:34:00,35.0,26.9,30.07,ESE,117,22.0,26.0,72,0.00,,,0.00,Wunderground v.1.15,2013-02-09 04:34:00,
2013-02-08 22:39:00,34.9,26.8,30.07,SE,125,22.0,27.0,72,0.00,,,0.00,Wunderground v.1.15,2013-02-09 04:39:00,
2013-02-08 22:45:00,34.9,26.4,30.07,ESE,107,22.0,27.0,71,0.00,,,0.00,Wunderground v.1.15,2013-02-09 04:45:00,
2013-02-08 22:50:00,34.8,26.4,30.06,SE,126,21.0,24.0,71,0.00,,,0.00,Wunderground v.1.15,2013-02-09 04:50:00,
2013-02-08 22:56:00,34.7,26.3,30.06,SE,134,21.0,28.0,71,0.00,,,0.00,Wunderground v.1.15,2013-02-09 04:56:00,
2013-02-08 23:00:00,34.5,26.1,30.06,ESE,113,21.0,21.0,71,0.00,,,0.00,Wunderground v.1.15,2013-02-09 05:00:00,
2013-02-08 23:01:00,34.4,26.0,30.06,SE,130,21.0,21.0,71,0.00,,,0.00,Wunderground v.1.15,2013-02-09 05:01:00,
2013-02-08 23:03:00,34.4,26.0,30.06,ESE,120,21.0,26.0,71,0.00,,,0.00,Wunderground v.1.15,2013-02-09 05:03:00,
2013-02-08 23:07:00,34.4,26.0,30.06,ESE,105,19.0,26.0,71,0.00,,,0.00,Wunderground v.1.15,2013-02-09 05:07:00,
2013-02-08 23:13:00,34.4,26.0,30.06,ESE,122,20.0,25.0,71,0.00,,,0.00,Wunderground v.1.15,2013-02-09 05:13:00,
2013-02-08 23:18:00,34.4,26.0,30.06,ESE,111,21.0,31.0,71,0.00,,,0.00,Wunderground v.1.15,2013-02-09 05:18:00,
2013-02-08 23:24:00,34.0,25.9,30.05,ESE,123,20.0,23.0,72,0.00,,,0.00,Wunderground v.1.15,2013-02-09 05:24:00,
2013-02-08 23:30:00,33.8,25.7,30.05,ESE,113,20.0,23.0,72,0.00,,,0.00,Wunderground v.1.15,2013-02-09 05:30:00,
2013-02-08 23:36:00,33.8,25.7,30.05,SE,132,18.0,29.0,72,0.00,,,0.00,Wunderground v.1.15,2013-02-09 05:36:00,
2013-02-08 23:41:00,33.8,25.7,30.06,SE,126,18.0,18.0,72,0.00,,,0.00,Wunderground v.1.15,2013-02-09 05:41:00,
2013-02-08 23:46:00,33.8,25.7,30.05,ESE,121,19.0,25.0,72,0.00,,,0.00,Wunderground v.1.15,2013-02-09 05:46:00,
2013-02-08 23:52:00,33.8,25.7,30.06,SE,136,20.0,25.0,72,0.00,,,0.00,Wunderground v.1.15,2013-02-09 05:52:00,
2013-02-08 23:57:00,33.8,25.7,30.06,ESE,113,19.0,25.0,72,0.00,,,0.00,Wunderground v.1.15,2013-02-09 05:57:00,